createdAt,value
2018-05-18T00:00:46.205Z,98254.81
2018-05-18T00:02:24.288Z,98252.66
2018-05-18T00:04:02.929Z,98239.88
2018-05-18T00:05:40.741Z,98099.02
2018-05-18T00:07:18.441Z,98066.63
2018-05-18T00:08:56.551Z,98100.34
2018-05-18T00:10:34.365Z,98088.45
2018-05-18T00:12:12.197Z,98129.27
2018-05-18T00:13:49.852Z,98176.05
2018-05-18T00:15:28.671Z,98201.00
2018-05-18T00:17:06.568Z,98249.52
2018-05-18T00:18:44.192Z,98228.98
2018-05-18T00:20:24.882Z,98166.44
2018-05-18T00:22:02.904Z,98134.91
2018-05-18T00:23:40.657Z,98060.09
2018-05-18T00:25:18.399Z,98101.72
2018-05-18T00:26:56.068Z,98110.46
2018-05-18T00:28:34.590Z,98107.84
2018-05-18T00:30:14.168Z,98087.66
2018-05-18T00:31:52.790Z,98092.05
2018-05-18T00:33:31.129Z,98116.09
2018-05-18T00:35:08.856Z,98149.91
2018-05-18T00:38:18.140Z,98180.89
2018-05-18T00:39:56.714Z,98230.35
2018-05-18T00:41:34.221Z,98263.09
2018-05-18T00:43:11.791Z,98237.37
2018-05-18T00:44:49.805Z,98219.92
2018-05-18T00:46:28.119Z,98195.82
2018-05-18T00:48:05.705Z,98231.33
2018-05-18T00:49:44.051Z,98214.63
2018-05-18T00:51:21.688Z,98278.53
2018-05-18T00:52:59.420Z,98275.95
2018-05-18T00:54:36.921Z,98268.53
2018-05-18T00:56:14.453Z,98237.45
2018-05-18T00:57:52.056Z,98162.56
2018-05-18T00:59:30.074Z,98140.31
2018-05-18T01:01:08.011Z,98212.91
2018-05-18T01:02:47.775Z,98225.22
2018-05-18T01:04:25.722Z,98170.91
2018-05-18T01:06:03.658Z,98170.09
2018-05-18T01:07:41.315Z,98241.88
2018-05-18T01:09:19.610Z,98175.72
2018-05-18T01:10:57.234Z,98144.27
2018-05-18T01:12:35.322Z,98133.37
2018-05-18T01:14:12.890Z,98119.82
2018-05-18T01:15:51.080Z,98037.58
2018-05-18T01:17:28.729Z,98059.86
2018-05-18T01:19:06.884Z,98115.94
2018-05-18T01:20:44.548Z,98199.86
2018-05-18T01:22:22.123Z,98255.98
2018-05-18T01:23:59.753Z,98269.83
2018-05-18T01:25:37.831Z,98260.73
2018-05-18T01:27:15.648Z,98255.91
2018-05-18T01:28:53.246Z,98282.10
2018-05-18T01:30:30.977Z,98323.75
2018-05-18T01:32:09.775Z,98350.89
2018-05-18T01:33:47.313Z,98414.48
2018-05-18T01:35:24.927Z,98389.05
2018-05-18T01:37:02.523Z,98309.74
2018-05-18T01:38:40.617Z,98240.19
2018-05-18T01:40:18.269Z,98242.81
2018-05-18T01:41:56.200Z,98200.80
2018-05-18T01:43:33.795Z,98126.87
2018-05-18T01:45:12.564Z,98177.60
2018-05-18T01:46:51.266Z,98202.05
2018-05-18T01:48:28.940Z,98241.09
2018-05-18T01:50:06.543Z,98248.50
2018-05-18T01:51:44.564Z,98281.28
2018-05-18T01:53:22.910Z,98231.45
2018-05-18T01:55:01.345Z,98189.80
2018-05-18T01:56:38.869Z,98174.55
2018-05-18T01:58:16.792Z,98115.08
2018-05-18T01:59:54.312Z,98118.60
2018-05-18T02:01:32.531Z,98168.94
2018-05-18T02:03:10.174Z,98204.41
2018-05-18T02:04:49.416Z,98231.02
2018-05-18T02:06:28.401Z,98200.45
2018-05-18T02:08:06.410Z,98204.83
2018-05-18T02:09:44.352Z,98231.91
2018-05-18T02:11:22.425Z,98216.59
2018-05-18T02:12:59.968Z,98229.72
2018-05-18T02:14:37.632Z,98269.55
2018-05-18T02:16:15.417Z,98305.07
2018-05-18T02:17:52.918Z,98280.99
2018-05-18T02:19:30.575Z,98233.20
2018-05-18T02:21:08.640Z,98252.97
2018-05-18T02:22:46.224Z,98254.73
2018-05-18T02:24:24.242Z,98249.48
2018-05-18T02:26:01.720Z,98282.22
2018-05-18T02:27:39.280Z,98302.91
2018-05-18T02:29:17.090Z,98200.45
2018-05-18T02:30:55.411Z,98090.64
2018-05-18T02:32:32.946Z,98047.80
2018-05-18T02:34:10.516Z,98049.17
2018-05-18T02:35:50.048Z,98064.01
2018-05-18T02:37:28.861Z,98068.75
2018-05-18T02:39:07.520Z,98104.73
2018-05-18T02:40:46.441Z,98149.31
2018-05-18T02:42:24.103Z,98225.84
2018-05-18T02:44:02.822Z,98268.69
2018-05-18T02:45:41.725Z,98229.41
2018-05-18T02:47:19.260Z,98144.97
2018-05-18T02:48:56.770Z,98148.49
2018-05-18T02:50:34.745Z,98141.01
2018-05-18T02:52:12.317Z,98169.88
2018-05-18T02:53:49.813Z,98187.36
2018-05-18T02:55:27.393Z,98237.33
2018-05-18T02:57:07.434Z,98259.16
2018-05-18T02:58:45.745Z,98277.51
2018-05-18T03:00:26.479Z,98279.31
2018-05-18T03:02:04.928Z,98250.84
2018-05-18T03:03:42.764Z,98252.61
2018-05-18T03:05:21.411Z,98207.11
2018-05-18T03:06:59.149Z,98171.64
2018-05-18T03:08:38.130Z,98161.19
2018-05-18T03:10:16.369Z,98192.69
2018-05-18T03:11:54.830Z,98204.56
2018-05-18T03:13:32.441Z,98207.11
2018-05-18T03:15:11.059Z,98230.73
2018-05-18T03:16:49.608Z,98208.87
2018-05-18T03:18:27.532Z,98197.51
2018-05-18T03:20:05.408Z,98216.78
2018-05-18T03:21:43.508Z,98264.05
2018-05-18T03:23:21.040Z,98317.92
2018-05-18T03:24:58.743Z,98287.70
2018-05-18T03:26:37.842Z,98282.80
2018-05-18T03:28:15.771Z,98280.21
2018-05-18T03:29:54.060Z,98288.64
2018-05-18T03:31:32.161Z,98273.66
2018-05-18T03:33:09.724Z,98239.13
2018-05-18T03:34:48.309Z,98215.92
2018-05-18T03:36:25.865Z,98163.49
2018-05-18T03:38:03.873Z,98118.80
2018-05-18T03:39:42.606Z,98146.38
2018-05-18T03:41:21.385Z,98167.80
2018-05-18T03:42:58.915Z,98184.34
2018-05-18T03:44:37.045Z,98206.72
2018-05-18T03:46:14.948Z,98232.58
2018-05-18T03:47:53.450Z,98264.52
2018-05-18T03:49:31.726Z,98286.41
2018-05-18T03:51:10.026Z,98257.55
2018-05-18T03:52:48.222Z,98251.31
2018-05-18T03:54:26.130Z,98265.34
2018-05-18T03:56:04.438Z,98269.34
2018-05-18T03:57:42.427Z,98257.08
2018-05-18T03:59:20.221Z,98291.73
2018-05-18T04:00:59.141Z,98314.44
2018-05-18T04:03:50.680Z,98353.86
2018-05-18T04:07:53.013Z,98339.06
2018-05-18T04:09:30.632Z,98244.38
2018-05-18T04:11:09.120Z,98241.36
2018-05-18T04:12:47.136Z,98247.86
2018-05-18T04:14:25.533Z,98268.60
2018-05-18T04:16:03.375Z,98237.36
2018-05-18T04:17:40.995Z,98264.13
2018-05-18T04:21:00.198Z,98330.67
2018-05-18T04:22:38.494Z,98349.94
2018-05-18T04:25:50.193Z,98435.42
2018-05-18T04:27:28.342Z,98433.19
2018-05-18T04:29:06.055Z,98376.72
2018-05-18T04:30:44.296Z,98356.59
2018-05-18T04:32:22.261Z,98377.63
2018-05-18T04:34:00.633Z,98371.89
2018-05-18T04:35:38.213Z,98371.47
2018-05-18T04:37:16.144Z,98366.17
2018-05-18T04:38:54.121Z,98304.05
2018-05-18T04:40:31.677Z,98217.77
2018-05-18T04:42:11.355Z,98195.11
2018-05-18T04:43:51.371Z,98177.05
2018-05-18T04:45:29.858Z,98257.73
2018-05-18T04:47:08.720Z,98301.89
2018-05-18T04:48:46.314Z,98315.84
2018-05-18T04:50:25.371Z,98289.66
2018-05-18T04:52:05.338Z,98298.39
2018-05-18T04:53:43.137Z,98258.92
2018-05-18T04:55:20.661Z,98148.69
2018-05-18T04:56:58.215Z,98202.52
2018-05-18T04:58:36.922Z,98208.67
2018-05-18T05:01:57.029Z,98215.25
2018-05-18T05:03:35.426Z,98176.73
2018-05-18T05:05:14.138Z,98100.66
2018-05-18T05:06:52.063Z,98093.17
2018-05-18T05:08:30.591Z,98098.00
2018-05-18T05:10:08.122Z,98142.61
2018-05-18T05:11:47.880Z,98124.67
2018-05-18T05:13:26.213Z,98107.59
2018-05-18T05:15:06.281Z,98079.13
2018-05-18T05:16:44.197Z,98049.40
2018-05-18T05:18:22.404Z,98088.41
2018-05-18T05:19:59.961Z,98118.09
2018-05-18T05:21:37.533Z,98154.44
2018-05-18T05:23:15.124Z,98157.50
2018-05-18T05:25:00.625Z,98209.53
2018-05-18T05:26:39.477Z,98248.53
2018-05-18T05:28:17.062Z,98223.09
2018-05-18T05:29:55.372Z,98089.27
2018-05-18T05:31:34.986Z,97949.40
2018-05-18T05:33:12.605Z,97891.73
2018-05-18T05:34:50.167Z,97919.78
2018-05-18T05:36:27.781Z,97922.75
2018-05-18T05:38:05.684Z,97905.30
2018-05-18T05:39:44.773Z,97880.78
2018-05-18T05:41:22.982Z,97904.80
2018-05-18T05:43:01.207Z,97971.63
2018-05-18T05:44:39.252Z,97953.73
2018-05-18T05:46:17.645Z,97956.80
2018-05-18T05:47:57.089Z,98002.23
2018-05-18T05:49:35.503Z,98031.08
2018-05-18T05:51:13.664Z,98027.20
2018-05-18T05:52:51.427Z,98006.22
2018-05-18T05:54:32.953Z,97944.23
2018-05-18T05:56:12.725Z,97934.95
2018-05-18T05:57:50.947Z,97914.77
2018-05-18T05:59:28.797Z,97927.09
2018-05-18T06:01:06.910Z,97927.05
2018-05-18T06:02:45.078Z,97880.00
2018-05-18T06:04:22.781Z,97805.81
2018-05-18T06:06:00.416Z,97838.98
2018-05-18T06:07:38.112Z,97858.14
2018-05-18T06:09:16.148Z,97877.73
2018-05-18T06:10:53.767Z,97905.27
2018-05-18T06:12:31.410Z,97921.50
2018-05-18T06:14:09.180Z,97967.72
2018-05-18T06:15:48.185Z,98016.67
2018-05-18T06:17:25.785Z,98130.89
2018-05-18T06:19:03.515Z,98219.64
2018-05-18T06:20:41.184Z,98275.22
2018-05-18T06:22:20.236Z,98284.86
2018-05-18T06:23:59.786Z,98326.51
2018-05-18T06:27:52.634Z,98445.62
2018-05-18T06:29:32.183Z,98435.97
2018-05-18T06:31:10.259Z,98394.33
2018-05-18T06:32:49.210Z,98360.17
2018-05-18T06:36:03.236Z,98308.16
2018-05-18T06:37:46.559Z,98361.50
2018-05-18T06:39:24.907Z,98350.20
2018-05-18T06:41:02.976Z,98448.75
2018-05-18T06:42:41.307Z,98460.92
2018-05-18T06:44:18.909Z,98419.32
2018-05-18T06:45:57.083Z,98435.97
2018-05-18T06:47:35.150Z,98407.48
2018-05-18T06:49:13.482Z,98333.92
2018-05-18T06:50:51.205Z,98309.02
2018-05-18T06:52:28.839Z,98329.64
2018-05-18T06:54:06.750Z,98362.91
2018-05-18T06:55:44.345Z,98489.45
2018-05-18T06:57:22.022Z,98548.16
2018-05-18T06:58:59.638Z,98551.66
2018-05-18T07:00:38.018Z,98378.16
2018-05-18T07:02:15.573Z,98248.67
2018-05-18T07:03:53.089Z,98185.98
2018-05-18T07:05:30.741Z,98251.62
2018-05-18T07:07:08.738Z,98283.65
2018-05-18T07:08:47.139Z,98353.69
2018-05-18T07:10:24.789Z,98422.53
2018-05-18T07:12:02.354Z,98551.22
2018-05-18T07:13:40.376Z,98606.98
2018-05-18T07:15:19.904Z,98592.53
2018-05-18T07:16:58.527Z,98637.71
2018-05-18T07:18:36.136Z,98763.25
2018-05-18T07:20:14.137Z,98999.10
2018-05-18T07:21:52.507Z,99080.44
2018-05-18T07:23:30.074Z,99120.06
2018-05-18T07:25:07.696Z,99126.64
2018-05-18T07:26:45.732Z,99214.30
2018-05-18T07:28:24.140Z,99306.77
2018-05-18T07:30:01.921Z,99428.02
2018-05-18T07:31:39.529Z,99574.91
2018-05-18T07:33:18.327Z,99645.59
2018-05-18T07:34:55.848Z,99714.33
2018-05-18T07:36:33.457Z,99622.60
2018-05-18T07:38:10.944Z,99398.09
2018-05-18T07:39:48.953Z,99227.67
2018-05-18T07:41:26.466Z,99161.58
2018-05-18T07:43:04.756Z,99171.70
2018-05-18T07:44:42.414Z,99018.14
2018-05-18T07:46:20.754Z,98989.13
2018-05-18T07:47:58.337Z,98957.44
2018-05-18T07:49:35.942Z,98954.00
2018-05-18T07:51:13.412Z,98815.00
2018-05-18T07:52:51.468Z,98715.04
2018-05-18T07:54:29.056Z,98698.27
2018-05-18T07:56:07.520Z,98735.57
2018-05-18T07:57:45.571Z,98821.28
2018-05-18T07:59:23.555Z,98886.28
2018-05-18T08:01:01.621Z,99031.77
2018-05-18T08:02:39.212Z,99097.27
2018-05-18T08:04:16.784Z,98942.08
2018-05-18T08:05:55.617Z,98952.59
2018-05-18T08:07:33.096Z,98987.35
2018-05-18T08:09:11.399Z,99044.96
2018-05-18T08:10:48.990Z,99110.47
2018-05-18T08:12:26.948Z,99269.87
2018-05-18T08:14:05.957Z,99330.73
2018-05-18T08:15:43.873Z,99428.95
2018-05-18T08:17:21.936Z,99519.84
2018-05-18T08:19:00.708Z,99526.47
2018-05-18T08:20:38.257Z,99415.23
2018-05-18T08:22:15.804Z,99309.98
2018-05-18T08:23:53.556Z,99206.88
2018-05-18T08:25:31.149Z,99130.77
2018-05-18T08:27:24.847Z,99123.23
2018-05-18T08:29:43.680Z,99067.73
2018-05-18T08:31:22.480Z,99103.36
2018-05-18T08:33:00.072Z,99021.22
2018-05-18T08:34:37.562Z,99029.16
2018-05-18T08:36:15.224Z,99027.39
2018-05-18T08:37:54.146Z,99014.56
2018-05-18T08:39:31.744Z,99077.97
2018-05-18T08:41:10.065Z,99209.15
2018-05-18T08:42:47.689Z,99323.16
2018-05-18T08:44:25.727Z,99314.33
2018-05-18T08:46:03.663Z,99293.69
2018-05-18T08:47:41.247Z,99310.45
2018-05-18T08:49:19.753Z,99336.02
2018-05-18T08:50:57.259Z,99394.58
2018-05-18T08:52:34.854Z,99447.91
2018-05-18T08:54:12.422Z,99525.53
2018-05-18T08:55:49.990Z,99366.33
2018-05-18T08:57:28.020Z,99217.41
2018-05-18T08:59:06.030Z,99269.00
2018-05-18T09:00:44.240Z,99323.16
2018-05-18T09:02:21.764Z,99447.87
2018-05-18T09:04:00.692Z,99569.25
2018-05-18T09:05:39.158Z,99553.77
2018-05-18T09:07:16.879Z,99593.51
2018-05-18T09:08:54.501Z,99731.63
2018-05-18T09:10:32.572Z,99721.00
2018-05-18T09:12:11.728Z,99660.58
2018-05-18T09:13:49.313Z,99630.14
2018-05-18T09:15:28.832Z,99694.17
2018-05-18T09:17:06.796Z,99711.34
2018-05-18T09:18:44.396Z,99832.37
2018-05-18T09:20:22.054Z,99965.44
2018-05-18T09:21:59.745Z,99997.72
2018-05-18T09:23:37.831Z,100069.84
2018-05-18T09:25:15.369Z,99842.53
2018-05-18T09:26:53.183Z,99586.84
2018-05-18T09:28:31.609Z,99360.07
2018-05-18T09:30:09.652Z,99308.68
2018-05-18T09:31:48.693Z,99276.46
2018-05-18T09:33:26.201Z,99383.13
2018-05-18T09:35:04.176Z,99419.68
2018-05-18T09:36:42.324Z,99528.67
2018-05-18T09:38:20.598Z,99619.55
2018-05-18T09:39:58.234Z,99647.73
2018-05-18T09:41:35.787Z,99605.37
2018-05-18T09:43:14.357Z,99606.25
2018-05-18T09:44:52.000Z,99680.45
2018-05-18T09:46:29.952Z,99701.11
2018-05-18T09:48:07.583Z,99632.82
2018-05-18T09:49:45.520Z,99495.52
2018-05-18T09:51:23.832Z,99463.74
2018-05-18T09:53:02.240Z,99495.92
2018-05-18T09:54:39.936Z,99635.87
2018-05-18T09:56:17.590Z,99689.24
2018-05-18T09:57:55.350Z,99770.47
2018-05-18T09:59:32.954Z,99947.74
2018-05-18T10:01:11.260Z,100021.16
2018-05-18T10:02:50.163Z,100069.38
2018-05-18T10:04:27.764Z,100058.76
2018-05-18T10:06:05.346Z,99984.39
2018-05-18T10:07:42.939Z,99951.14
2018-05-18T10:09:21.856Z,99930.45
2018-05-18T10:10:59.653Z,100038.84
2018-05-18T10:12:38.155Z,100042.30
2018-05-18T10:14:17.113Z,100090.15
2018-05-18T10:15:55.302Z,100053.42
2018-05-18T10:17:33.018Z,99889.70
2018-05-18T10:19:10.845Z,99843.81
2018-05-18T10:20:48.574Z,99941.94
2018-05-18T10:22:26.515Z,100021.98
2018-05-18T10:24:05.373Z,99976.39
2018-05-18T10:25:43.895Z,99890.64
2018-05-18T10:27:22.187Z,99781.88
2018-05-18T10:29:01.303Z,99804.98
2018-05-18T10:30:39.296Z,99899.50
2018-05-18T10:32:17.967Z,99965.84
2018-05-18T10:33:56.059Z,99867.67
2018-05-18T10:35:34.171Z,99914.54
2018-05-18T10:37:11.768Z,99996.81
2018-05-18T10:38:49.370Z,100110.08
2018-05-18T10:40:27.011Z,100211.51
2018-05-18T10:42:05.528Z,100152.10
2018-05-18T10:43:43.924Z,100017.48
2018-05-18T10:45:25.195Z,99941.47
2018-05-18T10:47:03.023Z,99996.31
2018-05-18T10:48:41.124Z,100054.36
2018-05-18T10:50:19.441Z,99973.71
2018-05-18T10:51:57.100Z,99887.48
2018-05-18T10:53:34.640Z,99784.94
2018-05-18T10:55:13.293Z,99776.58
2018-05-18T10:56:51.824Z,99811.00
2018-05-18T10:58:29.432Z,99870.27
2018-05-18T11:00:07.912Z,99821.54
2018-05-18T11:01:46.771Z,99812.78
2018-05-18T11:03:25.490Z,99862.22
2018-05-18T11:05:03.347Z,99976.86
2018-05-18T11:06:41.002Z,100130.39
2018-05-18T11:08:20.614Z,100245.52
2018-05-18T11:09:58.981Z,100332.30
2018-05-18T11:11:36.565Z,100311.03
2018-05-18T11:13:14.237Z,100259.69
2018-05-18T11:14:53.184Z,100244.64
2018-05-18T11:16:30.989Z,100152.91
2018-05-18T11:18:08.672Z,100094.02
2018-05-18T11:19:47.099Z,100151.20
2018-05-18T11:21:25.175Z,100227.73
2018-05-18T11:23:03.227Z,100259.71
2018-05-18T11:24:40.769Z,100282.67
2018-05-18T11:26:19.217Z,100236.61
2018-05-18T11:27:57.247Z,100355.85
2018-05-18T11:29:35.564Z,100434.30
2018-05-18T11:31:17.096Z,100404.11
2018-05-18T11:32:54.909Z,100332.68
2018-05-18T11:34:33.588Z,100251.65
2018-05-18T11:36:11.323Z,100229.05
2018-05-18T11:37:49.686Z,100236.17
2018-05-18T11:39:27.295Z,100264.94
2018-05-18T11:41:05.830Z,100236.11
2018-05-18T11:42:43.467Z,100149.82
2018-05-18T11:44:22.693Z,100196.73
2018-05-18T11:46:00.701Z,100159.56
2018-05-18T11:47:38.375Z,100168.41
2018-05-18T11:49:15.991Z,100132.14
2018-05-18T11:50:53.652Z,100156.85
2018-05-18T11:52:31.187Z,100155.53
2018-05-18T11:54:09.404Z,100126.33
2018-05-18T11:55:47.003Z,100139.61
2018-05-18T11:57:24.522Z,100202.88
2018-05-18T11:59:02.471Z,100335.34
2018-05-18T12:00:41.382Z,100405.86
2018-05-18T12:02:19.024Z,100350.89
2018-05-18T12:03:57.556Z,100330.02
2018-05-18T12:05:35.199Z,100378.83
2018-05-18T12:07:13.212Z,100445.80
2018-05-18T12:08:50.787Z,100294.09
2018-05-18T12:10:28.396Z,100210.42
2018-05-18T12:12:06.031Z,100152.91
2018-05-18T12:13:44.157Z,100165.26
2018-05-18T12:15:26.103Z,100210.86
2018-05-18T12:17:04.507Z,100266.16
2018-05-18T12:18:43.046Z,100350.86
2018-05-18T12:20:21.927Z,100334.38
2018-05-18T12:22:00.313Z,100372.13
2018-05-18T12:23:37.927Z,100366.78
2018-05-18T12:25:16.517Z,100493.66
2018-05-18T12:26:54.488Z,100581.59
2018-05-18T12:28:32.080Z,100532.70
2018-05-18T12:30:09.765Z,100450.65
2018-05-18T12:31:47.876Z,100475.81
2018-05-18T12:33:25.985Z,100530.08
2018-05-18T12:35:03.578Z,100542.48
2018-05-18T12:36:41.165Z,100568.22
2018-05-18T12:38:18.768Z,100588.15
2018-05-18T12:39:56.839Z,100561.58
2018-05-18T12:41:34.574Z,100527.83
2018-05-18T12:43:12.193Z,100511.80
2018-05-18T12:44:50.697Z,100421.33
2018-05-18T12:46:29.310Z,100403.08
2018-05-18T12:48:07.044Z,100503.34
2018-05-18T12:49:44.668Z,100554.84
2018-05-18T12:51:22.277Z,100480.27
2018-05-18T12:53:00.148Z,100501.09
2018-05-18T12:54:37.720Z,100498.42
2018-05-18T12:56:15.814Z,100454.13
2018-05-18T12:57:53.297Z,100385.80
2018-05-18T12:59:32.156Z,100338.73
2018-05-18T13:01:11.307Z,100414.16
2018-05-18T13:02:49.055Z,100384.00
2018-05-18T13:04:26.657Z,100364.09
2018-05-18T13:06:04.786Z,100362.28
2018-05-18T13:07:42.324Z,100418.14
2018-05-18T13:09:22.358Z,100462.45
2018-05-18T13:10:59.952Z,100396.36
2018-05-18T13:12:37.954Z,100364.06
2018-05-18T13:14:15.533Z,100314.80
2018-05-18T13:15:53.509Z,100272.23
2018-05-18T13:17:31.209Z,100300.19
2018-05-18T13:19:09.468Z,100382.59
2018-05-18T13:20:47.819Z,100474.86
2018-05-18T13:22:31.007Z,100573.43
2018-05-18T13:24:11.613Z,100421.61
2018-05-18T13:25:49.624Z,100498.84
2018-05-18T13:27:27.231Z,100560.56
2018-05-18T13:29:04.940Z,100595.11
2018-05-18T13:30:43.715Z,100623.97
2018-05-18T13:32:21.644Z,100637.28
2018-05-18T13:33:59.347Z,100625.31
2018-05-18T13:35:37.019Z,100692.41
2018-05-18T13:37:15.141Z,100596.40
2018-05-18T13:38:53.222Z,100470.38
2018-05-18T13:40:32.477Z,100428.22
2018-05-18T13:42:10.027Z,100438.48
2018-05-18T13:43:47.613Z,100326.28
2018-05-18T13:45:34.479Z,100411.88
2018-05-18T13:47:15.483Z,100449.53
2018-05-18T13:48:53.591Z,100495.64
2018-05-18T13:50:33.137Z,100447.72
2018-05-18T13:52:10.743Z,100428.69
2018-05-18T13:53:48.357Z,100385.22
2018-05-18T13:55:27.656Z,100445.03
2018-05-18T13:57:09.260Z,100490.73
2018-05-18T13:58:47.764Z,100504.01
2018-05-18T14:00:27.615Z,100557.37
2018-05-18T14:02:05.349Z,100469.83
2018-05-18T14:03:45.282Z,100448.19
2018-05-18T14:05:23.811Z,100479.15
2018-05-18T14:07:02.327Z,100561.31
2018-05-18T14:08:40.720Z,100583.05
2018-05-18T14:10:20.683Z,100636.27
2018-05-18T14:12:02.156Z,100611.44
2018-05-18T14:13:41.258Z,100503.98
2018-05-18T14:15:20.629Z,100551.11
2018-05-18T14:16:59.692Z,100643.84
2018-05-18T14:18:38.600Z,100583.00
2018-05-18T14:20:17.133Z,100506.20
2018-05-18T14:21:55.062Z,100568.84
2018-05-18T14:23:32.933Z,100632.72
2018-05-18T14:25:10.509Z,100687.81
2018-05-18T14:26:48.133Z,100695.75
2018-05-18T14:28:25.724Z,100653.62
2018-05-18T14:30:03.774Z,100648.23
2018-05-18T14:31:42.089Z,100710.92
2018-05-18T14:33:19.939Z,100738.04
2018-05-18T14:34:57.810Z,100829.55
2018-05-18T14:36:35.977Z,100838.38
2018-05-18T14:38:14.274Z,100802.86
2018-05-18T14:39:51.934Z,100758.42
2018-05-18T14:41:29.556Z,100672.18
2018-05-18T14:43:08.556Z,100679.77
2018-05-18T14:44:46.183Z,100638.90
2018-05-18T14:46:24.329Z,100576.27
2018-05-18T14:48:02.002Z,100516.29
2018-05-18T14:49:40.163Z,100507.02
2018-05-18T14:51:18.495Z,100525.22
2018-05-18T14:52:56.970Z,100538.97
2018-05-18T14:54:34.784Z,100517.70
2018-05-18T14:56:13.548Z,100494.59
2018-05-18T14:57:51.103Z,100464.85
2018-05-18T14:59:28.770Z,100488.80
2018-05-18T15:01:06.578Z,100555.84
2018-05-18T15:02:45.453Z,100620.60
2018-05-18T15:04:23.112Z,100640.59
2018-05-18T15:06:00.854Z,100623.23
2018-05-18T15:07:38.533Z,100649.49
2018-05-18T15:09:17.029Z,100624.64
2018-05-18T15:10:54.875Z,100637.48
2018-05-18T15:12:32.585Z,100678.39
2018-05-18T15:14:11.210Z,100737.39
2018-05-18T15:15:49.106Z,100713.47
2018-05-18T15:17:27.588Z,100737.37
2018-05-18T15:19:05.330Z,100691.24
2018-05-18T15:20:43.337Z,100657.39
2018-05-18T15:22:20.986Z,100662.75
2018-05-18T15:23:58.698Z,100718.74
2018-05-18T15:25:36.452Z,100752.48
2018-05-18T15:27:14.516Z,100767.19
2018-05-18T15:28:52.150Z,100691.16
2018-05-18T15:30:31.401Z,100601.05
2018-05-18T15:32:09.657Z,100579.78
2018-05-18T15:33:47.593Z,100600.55
2018-05-18T15:35:25.577Z,100665.45
2018-05-18T15:37:03.918Z,100720.94
2018-05-18T15:38:41.522Z,100823.97
2018-05-18T15:41:59.877Z,100934.30
2018-05-18T15:43:38.207Z,100957.31
2018-05-18T15:45:31.972Z,101014.80
2018-05-18T15:47:13.350Z,100969.83
2018-05-18T15:48:51.487Z,100901.75
2018-05-18T15:50:29.921Z,100763.55
2018-05-18T15:52:07.610Z,100612.88
2018-05-18T15:53:45.847Z,100619.61
2018-05-18T15:55:23.626Z,100638.69
2018-05-18T15:57:01.292Z,100540.95
2018-05-18T15:58:39.259Z,100599.09
2018-05-18T16:00:20.185Z,100634.68
2018-05-18T16:01:57.970Z,100606.23
2018-05-18T16:03:37.212Z,100581.36
2018-05-18T16:05:14.965Z,100582.67
2018-05-18T16:06:53.512Z,100681.35
2018-05-18T16:08:32.327Z,100743.46
2018-05-18T16:10:09.925Z,100755.53
2018-05-18T16:11:47.650Z,100788.45
2018-05-18T16:13:25.707Z,100801.70
2018-05-18T16:15:04.784Z,100854.16
2018-05-18T16:16:42.729Z,100930.10
2018-05-18T16:18:20.440Z,100981.30
2018-05-18T16:19:58.566Z,100985.33
2018-05-18T16:21:36.464Z,100999.55
2018-05-18T16:23:15.155Z,100950.95
2018-05-18T16:24:53.490Z,100927.91
2018-05-18T16:26:31.684Z,100970.19
2018-05-18T16:28:11.472Z,101016.06
2018-05-18T16:29:51.560Z,101033.81
2018-05-18T16:31:29.902Z,100987.97
2018-05-18T16:33:07.847Z,100923.42
2018-05-18T16:34:46.223Z,100956.79
2018-05-18T16:36:25.059Z,100961.25
2018-05-18T16:38:04.008Z,100971.87
2018-05-18T16:39:41.884Z,100958.52
2018-05-18T16:41:20.272Z,100913.19
2018-05-18T16:42:58.845Z,100822.06
2018-05-18T16:44:36.904Z,100866.49
2018-05-18T16:46:15.166Z,100861.19
2018-05-18T16:47:52.793Z,100798.45
2018-05-18T16:49:31.345Z,100785.59
2018-05-18T16:51:09.777Z,100734.47
2018-05-18T16:52:48.488Z,100708.67
2018-05-18T16:54:26.087Z,100721.17
2018-05-18T16:56:03.796Z,100749.17
2018-05-18T16:57:41.965Z,100761.12
2018-05-18T16:59:19.694Z,100793.61
2018-05-18T17:00:57.887Z,100727.32
2018-05-18T17:02:35.717Z,100652.27
2018-05-18T17:04:21.309Z,100631.40
2018-05-18T17:05:59.156Z,100634.94
2018-05-18T17:07:36.901Z,100651.34
2018-05-18T17:09:15.954Z,100552.27
2018-05-18T17:10:58.502Z,100468.03
2018-05-18T17:12:36.274Z,100406.30
2018-05-18T17:14:14.053Z,100411.62
2018-05-18T17:15:52.771Z,100429.02
2018-05-18T17:17:30.509Z,100426.77
2018-05-18T17:19:08.179Z,100438.67
2018-05-18T17:20:46.622Z,100464.46
2018-05-18T17:22:24.356Z,100494.58
2018-05-18T17:24:05.041Z,100517.22
2018-05-18T17:25:42.727Z,100617.59
2018-05-18T17:27:20.342Z,100689.08
2018-05-18T17:28:59.074Z,100654.83
2018-05-18T17:30:37.335Z,100592.70
2018-05-18T17:32:14.954Z,100589.55
2018-05-18T17:33:52.608Z,100585.16
2018-05-18T17:35:30.678Z,100541.16
2018-05-18T17:37:09.364Z,100488.37
2018-05-18T17:38:47.780Z,100534.05
2018-05-18T17:40:26.220Z,100544.22
2018-05-18T17:42:04.526Z,100465.72
2018-05-18T17:45:12.166Z,100505.20
2018-05-18T17:46:54.214Z,100503.00
2018-05-18T17:48:32.091Z,100518.07
2018-05-18T17:50:09.828Z,100474.14
2018-05-18T17:51:47.354Z,100535.80
2018-05-18T17:53:25.663Z,100449.78
2018-05-18T17:55:03.683Z,100499.38
2018-05-18T17:56:41.362Z,100477.62
2018-05-18T17:58:19.786Z,100416.06
2018-05-18T17:59:58.219Z,100433.31
2018-05-18T18:01:36.454Z,100452.38
2018-05-18T18:03:13.976Z,100380.08
2018-05-18T18:04:51.586Z,100326.83
2018-05-18T18:06:29.061Z,100323.36
2018-05-18T18:08:06.643Z,100328.64
2018-05-18T18:09:44.852Z,100324.27
2018-05-18T18:11:24.422Z,100345.53
2018-05-18T18:13:02.123Z,100333.96
2018-05-18T18:14:40.150Z,100393.82
2018-05-18T18:16:19.191Z,100284.79
2018-05-18T18:17:57.509Z,100246.17
2018-05-18T18:19:35.184Z,100209.50
2018-05-18T18:21:13.981Z,100152.30
2018-05-18T18:22:51.649Z,100150.42
2018-05-18T18:24:29.321Z,100155.80
2018-05-18T18:26:07.468Z,100096.86
2018-05-18T18:27:45.669Z,100070.38
2018-05-18T18:29:23.282Z,100029.67
2018-05-18T18:31:02.126Z,100027.43
2018-05-18T18:32:39.793Z,99992.48
2018-05-18T18:34:17.749Z,99976.53
2018-05-18T18:35:55.649Z,99978.34
2018-05-18T18:37:33.100Z,100011.88
2018-05-18T18:39:10.760Z,100121.70
2018-05-18T18:40:48.768Z,100127.36
2018-05-18T18:42:27.178Z,100131.80
2018-05-18T18:44:04.910Z,100181.36
2018-05-18T18:45:43.333Z,100138.92
2018-05-18T18:47:22.216Z,100042.42
2018-05-18T18:48:59.741Z,99977.78
2018-05-18T18:50:37.253Z,99966.73
2018-05-18T18:52:15.300Z,100009.69
2018-05-18T18:53:53.259Z,100024.77
2018-05-18T18:55:30.819Z,100029.17
2018-05-18T18:57:11.454Z,100031.83
2018-05-18T18:58:49.250Z,100047.26
2018-05-18T19:00:29.836Z,99994.14
2018-05-18T19:02:08.201Z,99995.11
2018-05-18T19:03:46.173Z,100014.53
2018-05-18T19:05:25.724Z,99955.70
2018-05-18T19:07:04.119Z,99883.24
2018-05-18T19:08:42.635Z,99881.47
2018-05-18T19:10:21.155Z,99875.62
2018-05-18T19:11:59.030Z,99934.11
2018-05-18T19:13:38.704Z,99920.75
2018-05-18T19:15:20.168Z,99934.05
2018-05-18T19:17:00.214Z,99952.15